createdAt,value
2018-02-18T00:01:36.801Z,1021.90
2018-02-18T00:03:39.049Z,1021.89
2018-02-18T00:05:40.843Z,1021.90
2018-02-18T00:07:43.010Z,1021.89
2018-02-18T00:09:45.328Z,1021.97
2018-02-18T00:11:46.839Z,1021.98
2018-02-18T00:13:48.303Z,1021.97
2018-02-18T00:15:50.514Z,1021.97
2018-02-18T00:17:52.339Z,1021.96
2018-02-18T00:19:54.064Z,1021.94
2018-02-18T00:21:55.577Z,1021.99
2018-02-18T00:23:57.634Z,1021.96
2018-02-18T00:25:59.313Z,1022.02
2018-02-18T00:28:00.802Z,1022.00
2018-02-18T00:30:02.328Z,1022.00
2018-02-18T00:32:04.272Z,1022.00
2018-02-18T00:34:06.510Z,1021.99
2018-02-18T00:36:08.330Z,1022.00
2018-02-18T00:38:09.860Z,1022.08
2018-02-18T00:40:11.722Z,1022.09
2018-02-18T00:42:13.425Z,1022.11
2018-02-18T00:44:14.918Z,1022.11
2018-02-18T00:46:16.874Z,1022.10
2018-02-18T00:48:19.112Z,1022.08
2018-02-18T00:50:21.524Z,1022.08
2018-02-18T00:52:23.203Z,1022.11
2018-02-18T00:54:24.843Z,1022.11
2018-02-18T00:56:26.474Z,1022.05
2018-02-18T00:58:27.989Z,1022.02
2018-02-18T01:00:30.055Z,1022.04
2018-02-18T01:03:12.558Z,1022.00
2018-02-18T01:05:13.979Z,1022.01
2018-02-18T01:07:16.995Z,1022.02
2018-02-18T01:09:18.376Z,1022.03
2018-02-18T01:11:19.783Z,1022.04
2018-02-18T01:13:21.238Z,1022.06
2018-02-18T01:15:23.415Z,1022.06
2018-02-18T01:17:25.606Z,1022.08
2018-02-18T01:19:27.797Z,1022.08
2018-02-18T01:21:29.521Z,1022.12
2018-02-18T01:23:31.084Z,1022.09
2018-02-18T01:25:32.956Z,1022.09
2018-02-18T01:27:34.728Z,1022.07
2018-02-18T01:29:36.256Z,1022.09
2018-02-18T01:31:38.046Z,1022.11
2018-02-18T01:33:39.945Z,1022.16
2018-02-18T01:35:41.872Z,1022.19
2018-02-18T01:37:44.179Z,1022.21
2018-02-18T01:39:46.488Z,1022.19
2018-02-18T01:41:47.967Z,1022.18
2018-02-18T01:43:50.033Z,1022.21
2018-02-18T01:45:51.950Z,1022.19
2018-02-18T01:47:54.315Z,1022.16
2018-02-18T01:49:56.560Z,1022.14
2018-02-18T01:51:58.028Z,1022.14
2018-02-18T01:53:59.502Z,1022.05
2018-02-18T01:56:01.492Z,1022.07
2018-02-18T01:58:03.163Z,1022.05
2018-02-18T02:00:05.295Z,1022.07
2018-02-18T02:02:47.112Z,1022.08
2018-02-18T02:04:48.698Z,1022.12
2018-02-18T02:06:50.099Z,1022.07
2018-02-18T02:08:51.879Z,1022.09
2018-02-18T02:10:53.249Z,1022.12
2018-02-18T02:12:54.945Z,1022.09
2018-02-18T02:14:56.553Z,1022.08
2018-02-18T02:16:58.767Z,1022.08
2018-02-18T02:19:00.755Z,1022.05
2018-02-18T02:21:02.991Z,1022.09
2018-02-18T02:23:04.460Z,1022.10
2018-02-18T02:25:06.575Z,1022.03
2018-02-18T02:27:08.095Z,1022.06
2018-02-18T02:29:09.497Z,1022.06
2018-02-18T02:31:10.915Z,1022.06
2018-02-18T02:33:12.596Z,1022.04
2018-02-18T02:35:15.275Z,1022.00
2018-02-18T02:37:16.804Z,1021.99
2018-02-18T02:39:18.214Z,1021.96
2018-02-18T02:41:19.830Z,1021.95
2018-02-18T02:44:02.386Z,1021.95
2018-02-18T02:46:04.009Z,1021.96
2018-02-18T02:48:05.823Z,1021.96
2018-02-18T02:50:08.152Z,1022.00
2018-02-18T02:52:09.800Z,1022.02
2018-02-18T02:54:11.593Z,1021.95
2018-02-18T02:56:14.214Z,1021.90
2018-02-18T02:58:15.804Z,1021.88
2018-02-18T03:00:17.443Z,1021.85
2018-02-18T03:02:19.346Z,1021.86
2018-02-18T03:04:21.322Z,1021.90
2018-02-18T03:06:23.595Z,1021.92
2018-02-18T03:08:25.474Z,1021.93
2018-02-18T03:10:26.972Z,1021.90
2018-02-18T03:12:28.459Z,1021.87
2018-02-18T03:14:29.919Z,1021.88
2018-02-18T03:16:31.869Z,1021.87
2018-02-18T03:18:33.615Z,1021.89
2018-02-18T03:20:35.234Z,1021.83
2018-02-18T03:22:36.829Z,1021.80
2018-02-18T03:24:38.498Z,1021.83
2018-02-18T03:26:39.984Z,1021.83
2018-02-18T03:28:41.935Z,1021.85
2018-02-18T03:30:43.981Z,1021.89
2018-02-18T03:32:45.465Z,1021.92
2018-02-18T03:34:47.415Z,1021.90
2018-02-18T03:36:49.089Z,1021.93
2018-02-18T03:38:51.551Z,1021.92
2018-02-18T03:40:53.309Z,1021.96
2018-02-18T03:42:55.191Z,1021.96
2018-02-18T03:44:57.406Z,1022.00
2018-02-18T03:46:59.644Z,1021.97
2018-02-18T03:49:01.842Z,1021.94
2018-02-18T03:51:03.331Z,1021.94
2018-02-18T03:53:04.835Z,1021.92
2018-02-18T03:55:06.712Z,1021.91
2018-02-18T03:57:08.908Z,1021.86
2018-02-18T03:59:10.780Z,1021.87
2018-02-18T04:01:13.440Z,1021.84
2018-02-18T04:03:15.293Z,1021.86
2018-02-18T04:05:17.211Z,1021.84
2018-02-18T04:07:18.727Z,1021.85
2018-02-18T04:09:20.640Z,1021.85
2018-02-18T04:11:22.887Z,1021.82
2018-02-18T04:13:24.461Z,1021.78
2018-02-18T04:15:26.629Z,1021.79
2018-02-18T04:17:28.471Z,1021.78
2018-02-18T04:19:30.118Z,1021.77
2018-02-18T04:21:32.350Z,1021.74
2018-02-18T04:23:33.859Z,1021.78
2018-02-18T04:25:35.682Z,1021.79
2018-02-18T04:27:37.177Z,1021.84
2018-02-18T04:29:38.794Z,1021.86
2018-02-18T04:31:40.927Z,1021.82
2018-02-18T04:33:42.799Z,1021.79
2018-02-18T04:35:45.111Z,1021.77
2018-02-18T04:37:46.998Z,1021.79
2018-02-18T04:39:48.523Z,1021.83
2018-02-18T04:41:50.386Z,1021.90
2018-02-18T04:43:52.031Z,1021.97
2018-02-18T04:45:53.560Z,1022.03
2018-02-18T04:47:55.088Z,1022.06
2018-02-18T04:49:56.598Z,1022.05
2018-02-18T04:51:58.807Z,1022.04
2018-02-18T04:54:00.475Z,1022.04
2018-02-18T04:56:02.283Z,1022.03
2018-02-18T04:58:03.752Z,1022.06
2018-02-18T05:00:05.584Z,1022.08
2018-02-18T05:02:07.046Z,1022.09
2018-02-18T05:04:08.568Z,1022.09
2018-02-18T05:06:10.091Z,1022.09
2018-02-18T05:08:12.325Z,1022.11
2018-02-18T05:10:14.074Z,1022.10
2018-02-18T05:12:15.580Z,1022.05
2018-02-18T05:14:17.092Z,1022.04
2018-02-18T05:16:18.586Z,1021.99
2018-02-18T05:18:20.174Z,1021.98
2018-02-18T05:20:21.675Z,1022.00
2018-02-18T05:22:24.364Z,1022.02
2018-02-18T05:24:26.301Z,1021.98
2018-02-18T05:26:28.199Z,1021.99
2018-02-18T05:28:29.672Z,1022.04
2018-02-18T05:30:31.547Z,1022.03
2018-02-18T05:32:33.002Z,1022.06
2018-02-18T05:34:34.636Z,1022.08
2018-02-18T05:36:36.239Z,1022.09
2018-02-18T05:38:37.733Z,1022.16
2018-02-18T05:40:39.237Z,1022.18
2018-02-18T05:42:40.760Z,1022.19
2018-02-18T05:44:42.608Z,1022.17
2018-02-18T05:46:44.118Z,1022.15
2018-02-18T05:48:45.739Z,1022.19
2018-02-18T05:50:47.283Z,1022.19
2018-02-18T05:52:48.737Z,1022.23
2018-02-18T05:54:50.697Z,1022.20
2018-02-18T05:56:52.438Z,1022.20
2018-02-18T05:58:54.104Z,1022.19
2018-02-18T06:00:55.788Z,1022.24
2018-02-18T06:02:57.322Z,1022.28
2018-02-18T06:04:58.825Z,1022.25
2018-02-18T06:07:00.305Z,1022.25
2018-02-18T06:09:01.786Z,1022.22
2018-02-18T06:11:03.228Z,1022.14
2018-02-18T06:13:04.702Z,1022.14
2018-02-18T06:15:06.119Z,1022.09
2018-02-18T06:17:07.627Z,1022.05
2018-02-18T06:19:09.574Z,1022.10
2018-02-18T06:21:11.064Z,1022.10
2018-02-18T06:23:13.047Z,1022.14
2018-02-18T06:25:15.148Z,1022.14
2018-02-18T06:27:17.241Z,1022.20
2018-02-18T06:29:18.773Z,1022.20
2018-02-18T06:31:20.290Z,1022.22
2018-02-18T06:33:22.192Z,1022.21
2018-02-18T06:35:24.468Z,1022.29
2018-02-18T06:37:26.545Z,1022.22
2018-02-18T06:39:28.238Z,1022.21
2018-02-18T06:41:30.485Z,1022.18
2018-02-18T06:44:13.085Z,1022.19
2018-02-18T06:46:14.536Z,1022.19
2018-02-18T06:48:16.233Z,1022.15
2018-02-18T06:50:17.616Z,1022.15
2018-02-18T06:52:19.160Z,1022.12
2018-02-18T06:54:20.579Z,1022.15
2018-02-18T06:56:21.981Z,1022.16
2018-02-18T06:58:23.404Z,1022.17
2018-02-18T07:00:24.861Z,1022.16
2018-02-18T07:03:07.347Z,1022.14
2018-02-18T07:05:08.748Z,1022.17
2018-02-18T07:07:10.148Z,1022.18
2018-02-18T07:09:12.074Z,1022.15
2018-02-18T07:11:13.464Z,1022.15
2018-02-18T07:13:14.914Z,1022.13
2018-02-18T07:15:16.797Z,1022.16
2018-02-18T07:17:18.202Z,1022.10
2018-02-18T07:19:19.776Z,1022.07
2018-02-18T07:21:21.269Z,1022.01
2018-02-18T07:24:03.702Z,1022.04
2018-02-18T07:26:05.101Z,1022.03
2018-02-18T07:28:06.503Z,1022.00
2018-02-18T07:30:07.919Z,1021.92
2018-02-18T07:32:09.337Z,1021.90
2018-02-18T07:34:10.729Z,1021.87
2018-02-18T07:36:12.131Z,1021.88
2018-02-18T07:38:13.558Z,1021.91
2018-02-18T07:40:14.975Z,1021.93
2018-02-18T07:42:16.380Z,1021.87
2018-02-18T07:44:18.153Z,1021.90
2018-02-18T07:46:20.161Z,1021.82
2018-02-18T07:48:21.799Z,1021.86
2018-02-18T07:50:23.213Z,1021.84
2018-02-18T07:52:24.646Z,1021.90
2018-02-18T07:54:26.085Z,1021.87
2018-02-18T07:56:27.732Z,1021.91
2018-02-18T07:58:29.325Z,1021.95
2018-02-18T08:00:31.017Z,1021.91
2018-02-18T08:02:32.620Z,1021.93
2018-02-18T08:04:34.393Z,1021.92
2018-02-18T08:06:35.884Z,1021.91
2018-02-18T08:08:37.312Z,1021.88
2018-02-18T08:10:38.772Z,1021.95
2018-02-18T08:12:40.407Z,1021.96
2018-02-18T08:14:42.283Z,1022.03
2018-02-18T08:16:43.770Z,1021.97
2018-02-18T08:18:45.454Z,1022.00
2018-02-18T08:20:47.407Z,1022.06
2018-02-18T08:22:48.988Z,1022.10
2018-02-18T08:24:50.502Z,1022.11
2018-02-18T08:26:51.999Z,1022.12
2018-02-18T08:28:53.476Z,1022.08
2018-02-18T08:30:55.177Z,1022.09
2018-02-18T08:32:56.635Z,1022.05
2018-02-18T08:34:58.171Z,1022.07
2018-02-18T08:36:59.655Z,1022.10
2018-02-18T08:39:01.371Z,1022.09
2018-02-18T08:41:03.256Z,1022.13
2018-02-18T08:43:04.955Z,1022.12
2018-02-18T08:45:06.478Z,1022.07
2018-02-18T08:47:08.000Z,1022.13
2018-02-18T08:49:09.512Z,1022.08
2018-02-18T08:51:11.099Z,1022.16
2018-02-18T08:53:12.625Z,1022.18
2018-02-18T08:55:14.531Z,1022.18
2018-02-18T08:57:15.984Z,1022.13
2018-02-18T08:59:17.642Z,1022.14
2018-02-18T09:01:19.303Z,1022.09
2018-02-18T09:04:01.913Z,1022.07
2018-02-18T09:06:03.305Z,1022.07
2018-02-18T09:08:04.733Z,1022.01
2018-02-18T09:10:06.218Z,1022.02
2018-02-18T09:12:07.680Z,1021.97
2018-02-18T09:14:09.321Z,1021.92
2018-02-18T09:16:10.779Z,1021.93
2018-02-18T09:18:12.678Z,1021.91
2018-02-18T09:20:14.498Z,1021.95
2018-02-18T09:22:55.900Z,1021.94
2018-02-18T09:24:57.375Z,1021.91
2018-02-18T09:26:58.795Z,1021.88
2018-02-18T09:29:00.221Z,1021.99
2018-02-18T09:31:01.736Z,1021.93
2018-02-18T09:33:03.352Z,1021.96
2018-02-18T09:35:04.832Z,1022.01
2018-02-18T09:37:06.321Z,1022.01
2018-02-18T09:39:07.942Z,1022.02
2018-02-18T09:41:09.807Z,1022.03
2018-02-18T09:43:11.460Z,1022.07
2018-02-18T09:45:12.960Z,1022.03
2018-02-18T09:47:14.418Z,1022.03
2018-02-18T09:49:15.926Z,1022.05
2018-02-18T09:51:17.443Z,1022.04
2018-02-18T09:53:19.207Z,1022.06
2018-02-18T09:55:20.736Z,1022.06
2018-02-18T09:57:22.253Z,1022.01
2018-02-18T09:59:23.752Z,1022.07
2018-02-18T10:01:25.431Z,1022.06
2018-02-18T10:03:26.911Z,1022.10
2018-02-18T10:05:28.381Z,1022.10
2018-02-18T10:07:29.961Z,1022.12
2018-02-18T10:09:31.424Z,1022.16
2018-02-18T10:11:32.892Z,1022.14
2018-02-18T10:13:34.327Z,1022.17
2018-02-18T10:15:35.838Z,1022.17
2018-02-18T10:17:37.340Z,1022.18
2018-02-18T10:19:38.832Z,1022.20
2018-02-18T10:21:40.328Z,1022.21
2018-02-18T10:23:41.833Z,1022.23
2018-02-18T10:25:43.307Z,1022.21
2018-02-18T10:27:45.164Z,1022.25
2018-02-18T10:29:46.852Z,1022.27
2018-02-18T10:31:48.519Z,1022.30
2018-02-18T10:33:50.029Z,1022.28
2018-02-18T10:35:51.619Z,1022.33
2018-02-18T10:37:53.081Z,1022.33
2018-02-18T10:39:54.644Z,1022.37
2018-02-18T10:41:56.229Z,1022.40
2018-02-18T10:43:57.828Z,1022.33
2018-02-18T10:45:59.289Z,1022.37
2018-02-18T10:48:00.915Z,1022.38
2018-02-18T10:50:02.554Z,1022.35
2018-02-18T10:52:04.011Z,1022.30
2018-02-18T10:54:06.030Z,1022.30
2018-02-18T10:56:07.819Z,1022.31
2018-02-18T10:58:09.341Z,1022.28
2018-02-18T11:00:10.946Z,1022.29
2018-02-18T11:02:12.524Z,1022.31
2018-02-18T11:04:14.487Z,1022.28
2018-02-18T11:06:16.220Z,1022.21
2018-02-18T11:08:17.832Z,1022.23
2018-02-18T11:11:00.531Z,1022.21
2018-02-18T11:13:02.008Z,1022.22
2018-02-18T11:15:03.433Z,1022.21
2018-02-18T11:17:04.911Z,1022.12
2018-02-18T11:19:06.288Z,1022.13
2018-02-18T11:21:07.764Z,1022.09
2018-02-18T11:23:09.162Z,1022.11
2018-02-18T11:25:10.706Z,1022.15
2018-02-18T11:27:12.327Z,1022.09
2018-02-18T11:29:13.845Z,1022.14
2018-02-18T11:31:15.585Z,1022.05
2018-02-18T11:33:17.302Z,1022.09
2018-02-18T11:35:18.808Z,1022.06
2018-02-18T11:37:20.213Z,1022.04
2018-02-18T11:39:21.901Z,1022.03
2018-02-18T11:41:23.535Z,1022.01
2018-02-18T11:44:05.959Z,1022.01
2018-02-18T11:46:07.546Z,1021.99
2018-02-18T11:48:08.972Z,1021.94
2018-02-18T11:50:10.399Z,1021.95
2018-02-18T11:52:11.818Z,1021.89
2018-02-18T11:54:13.235Z,1021.85
2018-02-18T11:56:14.690Z,1021.82
2018-02-18T11:58:16.143Z,1021.77
2018-02-18T12:00:17.557Z,1021.75
2018-02-18T12:02:59.971Z,1021.71
2018-02-18T12:05:01.395Z,1021.75
2018-02-18T12:07:02.818Z,1021.67
2018-02-18T12:09:04.306Z,1021.67
2018-02-18T12:11:05.752Z,1021.68
2018-02-18T12:13:07.230Z,1021.62
2018-02-18T12:15:08.638Z,1021.55
2018-02-18T12:17:10.172Z,1021.54
2018-02-18T12:19:11.623Z,1021.50
2018-02-18T12:21:13.034Z,1021.50
2018-02-18T12:23:14.448Z,1021.41
2018-02-18T12:25:15.865Z,1021.38
2018-02-18T12:27:17.307Z,1021.35
2018-02-18T12:29:18.707Z,1021.40
2018-02-18T12:31:20.125Z,1021.39
2018-02-18T12:33:21.656Z,1021.40
2018-02-18T12:35:23.093Z,1021.41
2018-02-18T12:37:24.663Z,1021.35
2018-02-18T12:39:26.088Z,1021.34
2018-02-18T12:41:27.518Z,1021.36
2018-02-18T12:44:10.711Z,1021.31
2018-02-18T12:46:12.088Z,1021.28
2018-02-18T12:48:13.502Z,1021.29
2018-02-18T12:50:15.161Z,1021.32
2018-02-18T12:52:16.888Z,1021.26
2018-02-18T12:54:18.786Z,1021.26
2018-02-18T12:56:20.420Z,1021.21
2018-02-18T12:58:21.966Z,1021.19
2018-02-18T13:00:23.597Z,1021.16
2018-02-18T13:03:06.007Z,1021.12
2018-02-18T13:05:07.428Z,1021.15
2018-02-18T13:07:08.846Z,1021.09
2018-02-18T13:09:10.259Z,1021.06
2018-02-18T13:11:11.672Z,1021.02
2018-02-18T13:13:13.206Z,1021.03
2018-02-18T13:15:14.647Z,1020.97
2018-02-18T13:17:16.064Z,1020.94
2018-02-18T13:19:17.582Z,1020.96
2018-02-18T13:21:18.996Z,1020.92
2018-02-18T13:23:20.411Z,1020.87
2018-02-18T13:25:21.823Z,1020.87
2018-02-18T13:27:23.236Z,1020.78
2018-02-18T13:29:24.696Z,1020.77
2018-02-18T13:31:26.115Z,1020.71
2018-02-18T13:33:27.530Z,1020.69
2018-02-18T13:35:28.943Z,1020.65
2018-02-18T13:37:30.372Z,1020.65
2018-02-18T13:39:31.788Z,1020.65
2018-02-18T13:41:33.228Z,1020.64
2018-02-18T13:44:15.630Z,1020.66
2018-02-18T13:46:17.041Z,1020.63
2018-02-18T13:48:18.475Z,1020.67
2018-02-18T13:50:19.900Z,1020.68
2018-02-18T13:52:21.315Z,1020.69
2018-02-18T13:54:22.768Z,1020.72
2018-02-18T13:56:24.211Z,1020.72
2018-02-18T13:58:25.617Z,1020.77
2018-02-18T14:00:27.046Z,1020.80
2018-02-18T14:02:28.456Z,1020.88
2018-02-18T14:04:29.902Z,1020.85
2018-02-18T14:06:31.366Z,1020.78
2018-02-18T14:08:32.789Z,1020.79
2018-02-18T14:10:34.196Z,1020.80
2018-02-18T14:12:35.639Z,1020.73
2018-02-18T14:14:37.051Z,1020.74
2018-02-18T14:16:38.464Z,1020.72
2018-02-18T14:18:39.875Z,1020.76
2018-02-18T14:20:41.294Z,1020.78
2018-02-18T14:22:42.727Z,1020.79
2018-02-18T14:24:44.456Z,1020.78
2018-02-18T14:26:45.926Z,1020.77
2018-02-18T14:28:47.384Z,1020.77
2018-02-18T14:30:48.868Z,1020.76
2018-02-18T14:32:50.383Z,1020.72
2018-02-18T14:34:51.889Z,1020.75
2018-02-18T14:36:53.448Z,1020.76
2018-02-18T14:38:54.985Z,1020.73
2018-02-18T14:40:56.489Z,1020.75
2018-02-18T14:42:58.010Z,1020.72
2018-02-18T14:44:59.538Z,1020.70
2018-02-18T14:47:01.060Z,1020.69
2018-02-18T14:49:02.469Z,1020.62
2018-02-18T14:51:03.917Z,1020.63
2018-02-18T14:53:05.360Z,1020.57
2018-02-18T14:55:07.079Z,1020.58
2018-02-18T14:57:08.474Z,1020.56
2018-02-18T14:59:09.983Z,1020.56
2018-02-18T15:01:11.445Z,1020.58
2018-02-18T15:03:12.976Z,1020.52
2018-02-18T15:05:14.461Z,1020.53
2018-02-18T15:07:16.005Z,1020.51
2018-02-18T15:09:17.491Z,1020.48
2018-02-18T15:11:18.989Z,1020.50
2018-02-18T15:13:20.679Z,1020.51
2018-02-18T15:15:22.207Z,1020.46
2018-02-18T15:17:23.697Z,1020.44
2018-02-18T15:19:25.206Z,1020.44
2018-02-18T15:21:26.830Z,1020.39
2018-02-18T15:24:09.221Z,1020.37
2018-02-18T15:26:10.631Z,1020.39
2018-02-18T15:28:12.045Z,1020.37
2018-02-18T15:30:13.463Z,1020.38
2018-02-18T15:32:14.889Z,1020.36
2018-02-18T15:34:16.289Z,1020.35
2018-02-18T15:36:17.705Z,1020.34
2018-02-18T15:38:19.154Z,1020.36
2018-02-18T15:40:20.808Z,1020.38
2018-02-18T15:42:22.222Z,1020.37
2018-02-18T15:45:04.619Z,1020.34
2018-02-18T15:47:06.791Z,1020.36
2018-02-18T15:49:08.167Z,1020.39
2018-02-18T15:51:09.578Z,1020.36
2018-02-18T15:53:10.995Z,1020.36
2018-02-18T15:55:12.405Z,1020.35
2018-02-18T15:57:13.934Z,1020.34
2018-02-18T15:59:15.724Z,1020.37
2018-02-18T16:01:17.137Z,1020.34
2018-02-18T16:03:18.618Z,1020.33
2018-02-18T16:05:20.146Z,1020.33
2018-02-18T16:07:21.630Z,1020.32
2018-02-18T16:09:23.139Z,1020.24
2018-02-18T16:11:24.946Z,1020.24
2018-02-18T16:13:26.517Z,1020.23
2018-02-18T16:15:28.085Z,1020.25
2018-02-18T16:17:29.550Z,1020.24
2018-02-18T16:19:31.063Z,1020.18
2018-02-18T16:21:32.572Z,1020.11
2018-02-18T16:23:33.991Z,1020.06
2018-02-18T16:25:35.458Z,1020.12
2018-02-18T16:27:36.881Z,1020.15
2018-02-18T16:29:38.431Z,1020.17
2018-02-18T16:31:40.250Z,1020.13
2018-02-18T16:33:41.764Z,1020.12
2018-02-18T16:35:43.184Z,1020.09
2018-02-18T16:37:44.621Z,1020.14
2018-02-18T16:39:46.110Z,1020.15
2018-02-18T16:41:47.586Z,1020.21
2018-02-18T16:43:49.140Z,1020.19
2018-02-18T16:45:50.616Z,1020.12
2018-02-18T16:47:52.256Z,1020.11
2018-02-18T16:49:54.264Z,1020.11
2018-02-18T16:51:56.370Z,1020.06
2018-02-18T16:53:58.066Z,1020.06
2018-02-18T16:55:59.982Z,1020.11
2018-02-18T16:58:01.476Z,1020.14
2018-02-18T17:00:02.962Z,1020.13
2018-02-18T17:02:04.456Z,1020.12
2018-02-18T17:04:05.957Z,1020.10
2018-02-18T17:06:07.598Z,1020.05
2018-02-18T17:08:09.270Z,1020.03
2018-02-18T17:10:51.624Z,1020.04
2018-02-18T17:12:53.035Z,1020.05
2018-02-18T17:14:54.454Z,1020.04
2018-02-18T17:16:55.855Z,1020.06
2018-02-18T17:18:57.276Z,1020.04
2018-02-18T17:20:58.822Z,1020.06
2018-02-18T17:23:41.321Z,1020.02
2018-02-18T17:25:42.722Z,1020.09
2018-02-18T17:27:44.127Z,1020.07
2018-02-18T17:29:45.596Z,1020.05
2018-02-18T17:31:47.302Z,1020.05
2018-02-18T17:33:48.963Z,1020.10
2018-02-18T17:35:50.556Z,1020.11
2018-02-18T17:37:52.057Z,1020.12
2018-02-18T17:39:53.459Z,1020.14
2018-02-18T17:41:54.880Z,1020.18
2018-02-18T17:43:56.360Z,1020.19
2018-02-18T17:45:57.873Z,1020.19
2018-02-18T17:47:59.392Z,1020.20
2018-02-18T17:50:00.885Z,1020.21
2018-02-18T17:52:02.542Z,1020.23
2018-02-18T17:54:04.041Z,1020.25
2018-02-18T17:56:05.457Z,1020.30
2018-02-18T17:58:06.866Z,1020.25
2018-02-18T18:00:08.584Z,1020.22
2018-02-18T18:02:10.426Z,1020.25
2018-02-18T18:04:11.843Z,1020.19
2018-02-18T18:06:13.359Z,1020.19
2018-02-18T18:08:14.827Z,1020.18
2018-02-18T18:10:16.408Z,1020.17
2018-02-18T18:12:18.385Z,1020.08
2018-02-18T18:14:19.868Z,1020.07
2018-02-18T18:16:21.321Z,1020.04
2018-02-18T18:18:22.797Z,1020.06
2018-02-18T18:20:24.864Z,1020.01
2018-02-18T18:23:07.404Z,1019.99
2018-02-18T18:25:08.939Z,1020.01
2018-02-18T18:27:10.350Z,1020.03
2018-02-18T18:29:11.759Z,1019.99
2018-02-18T18:31:13.164Z,1019.97
2018-02-18T18:33:14.576Z,1020.00
2018-02-18T18:35:15.977Z,1019.99
2018-02-18T18:37:17.452Z,1020.03
2018-02-18T18:39:18.956Z,1020.00
2018-02-18T18:41:20.344Z,1020.04
2018-02-18T18:43:21.753Z,1020.06
2018-02-18T18:45:23.183Z,1020.07
2018-02-18T18:47:24.950Z,1020.10
2018-02-18T18:49:26.648Z,1020.07
2018-02-18T18:51:28.160Z,1020.08
2018-02-18T18:53:29.616Z,1020.05
2018-02-18T18:55:31.116Z,1020.04
2018-02-18T18:57:32.628Z,1020.03
2018-02-18T18:59:34.184Z,1020.06
2018-02-18T19:02:16.610Z,1020.03
2018-02-18T19:04:18.018Z,1020.04
2018-02-18T19:06:19.421Z,1020.01
2018-02-18T19:08:20.828Z,1020.01
2018-02-18T19:10:22.230Z,1019.98
2018-02-18T19:12:23.639Z,1019.99
2018-02-18T19:14:25.042Z,1019.95
2018-02-18T19:16:26.450Z,1019.89
2018-02-18T19:18:27.852Z,1019.89
2018-02-18T19:20:29.255Z,1019.83
2018-02-18T19:22:30.796Z,1019.82
2018-02-18T19:24:32.276Z,1019.79
2018-02-18T19:26:33.681Z,1019.79
2018-02-18T19:28:35.087Z,1019.80
2018-02-18T19:30:36.489Z,1019.80
2018-02-18T19:32:37.913Z,1019.77
2018-02-18T19:34:39.457Z,1019.75
2018-02-18T19:36:40.863Z,1019.70
2018-02-18T19:38:42.265Z,1019.75
2018-02-18T19:40:43.694Z,1019.69
2018-02-18T19:42:45.125Z,1019.72
2018-02-18T19:44:47.077Z,1019.75
2018-02-18T19:46:48.521Z,1019.76
2018-02-18T19:48:49.924Z,1019.78
2018-02-18T19:50:52.665Z,1019.71
2018-02-18T19:52:55.392Z,1019.68
2018-02-18T19:55:00.158Z,1019.70
2018-02-18T19:57:02.125Z,1019.69
2018-02-18T19:59:03.069Z,1019.71
2018-02-18T20:01:07.013Z,1019.70
2018-02-18T20:03:09.689Z,1019.66
2018-02-18T20:05:13.218Z,1019.65
2018-02-18T20:07:14.630Z,1019.62
2018-02-18T20:09:16.973Z,1019.59
2018-02-18T20:11:19.360Z,1019.59
2018-02-18T20:13:20.815Z,1019.55
2018-02-18T20:15:23.751Z,1019.50
2018-02-18T20:17:26.701Z,1019.48
2018-02-18T20:19:28.692Z,1019.47
2018-02-18T20:22:11.368Z,1019.39
2018-02-18T20:24:12.773Z,1019.39
2018-02-18T20:26:14.175Z,1019.43
2018-02-18T20:28:17.890Z,1019.37
2018-02-18T20:30:19.295Z,1019.36
2018-02-18T20:32:22.127Z,1019.37
2018-02-18T20:34:25.343Z,1019.33
2018-02-18T20:36:26.748Z,1019.32
2018-02-18T20:38:28.932Z,1019.29
2018-02-18T20:40:30.870Z,1019.25
2018-02-18T20:42:32.273Z,1019.17
2018-02-18T20:44:33.677Z,1019.17
2018-02-18T20:46:36.063Z,1019.19
2018-02-18T20:48:37.451Z,1019.16
2018-02-18T20:50:41.290Z,1019.17
2018-02-18T20:52:42.699Z,1019.19
2018-02-18T20:54:44.900Z,1019.19
2018-02-18T20:56:46.313Z,1019.22
2018-02-18T20:58:47.738Z,1019.27
2018-02-18T21:00:49.233Z,1019.25
2018-02-18T21:02:50.713Z,1019.29
2018-02-18T21:04:52.198Z,1019.32
2018-02-18T21:06:53.710Z,1019.34
2018-02-18T21:08:55.165Z,1019.28
2018-02-18T21:10:56.601Z,1019.23
2018-02-18T21:12:58.111Z,1019.24
2018-02-18T21:14:59.839Z,1019.22
2018-02-18T21:17:01.323Z,1019.26
2018-02-18T21:19:02.808Z,1019.22
2018-02-18T21:21:04.286Z,1019.25
2018-02-18T21:23:05.774Z,1019.21
2018-02-18T21:25:07.194Z,1019.22
2018-02-18T21:27:08.703Z,1019.19
2018-02-18T21:29:10.180Z,1019.23
2018-02-18T21:31:11.693Z,1019.22
2018-02-18T21:33:13.170Z,1019.15
2018-02-18T21:35:14.655Z,1019.17
2018-02-18T21:37:16.204Z,1019.21
2018-02-18T21:39:17.683Z,1019.22
2018-02-18T21:41:19.241Z,1019.20
2018-02-18T21:43:20.803Z,1019.16
2018-02-18T21:45:22.290Z,1019.16
2018-02-18T21:47:23.731Z,1019.18
2018-02-18T21:49:25.249Z,1019.19
2018-02-18T21:51:27.482Z,1019.18
2018-02-18T21:53:28.914Z,1019.13
2018-02-18T21:55:31.173Z,1019.10
2018-02-18T21:57:32.636Z,1019.11
2018-02-18T21:59:34.096Z,1019.11
2018-02-18T22:02:16.478Z,1019.10
2018-02-18T22:04:17.904Z,1019.11
2018-02-18T22:06:19.308Z,1019.14
2018-02-18T22:08:20.710Z,1019.10
2018-02-18T22:10:22.111Z,1019.08
2018-02-18T22:12:24.929Z,1019.10
2018-02-18T22:14:28.412Z,1019.13
2018-02-18T22:16:29.822Z,1019.11
2018-02-18T22:18:31.292Z,1019.10
2018-02-18T22:20:32.763Z,1019.11
2018-02-18T22:23:17.274Z,1019.11
2018-02-18T22:25:18.904Z,1019.04
2018-02-18T22:27:20.340Z,1019.03
2018-02-18T22:29:22.248Z,1019.04
2018-02-18T22:31:24.415Z,1019.03
2018-02-18T22:33:26.457Z,1019.02
2018-02-18T22:35:28.484Z,1019.02
2018-02-18T22:37:30.911Z,1019.04
2018-02-18T22:39:32.481Z,1019.07
2018-02-18T22:42:14.884Z,1019.02
2018-02-18T22:44:18.350Z,1018.99
2018-02-18T22:46:19.707Z,1019.01
2018-02-18T22:48:21.099Z,1019.02
2018-02-18T22:50:22.865Z,1019.02
2018-02-18T22:52:24.713Z,1019.01
2018-02-18T22:54:27.196Z,1019.03
2018-02-18T22:56:29.197Z,1018.96
2018-02-18T22:58:30.676Z,1018.93
2018-02-18T23:00:32.226Z,1018.93
2018-02-18T23:02:34.614Z,1018.98
2018-02-18T23:04:36.133Z,1018.94
2018-02-18T23:06:38.482Z,1018.98
2018-02-18T23:08:40.818Z,1018.94
2018-02-18T23:10:42.289Z,1018.94
2018-02-18T23:12:43.806Z,1018.90
2018-02-18T23:14:45.333Z,1018.88
2018-02-18T23:16:46.857Z,1018.87
2018-02-18T23:18:48.453Z,1018.88
2018-02-18T23:20:50.813Z,1018.87
2018-02-18T23:22:52.296Z,1018.88
2018-02-18T23:24:53.853Z,1018.86
2018-02-18T23:26:55.381Z,1018.73
2018-02-18T23:28:56.996Z,1018.72
2018-02-18T23:30:58.476Z,1018.76
2018-02-18T23:33:00.022Z,1018.78
2018-02-18T23:35:01.476Z,1018.76
2018-02-18T23:37:03.854Z,1018.71
2018-02-18T23:39:06.266Z,1018.68
2018-02-18T23:41:08.623Z,1018.67
2018-02-18T23:43:52.603Z,1018.70
2018-02-18T23:45:54.012Z,1018.66
2018-02-18T23:47:55.414Z,1018.65
2018-02-18T23:49:56.815Z,1018.68
2018-02-18T23:51:58.575Z,1018.65
2018-02-18T23:54:00.383Z,1018.65
2018-02-18T23:56:01.838Z,1018.64
2018-02-18T23:58:04.347Z,1018.59
